Time;durP1;ratioP1;P1;durP2;ratioP2;P2;SDS_P1;SDS_P2;PMS_P1;PMS_P2;Temp;Humidity;BMP_temperature;BMP_pressure;BME280_temperature;BME280_humidity;BME280_pressure;Samples;Min_cycle;Max_cycle;Signal;HPM_P1;HPM_P2
2022/09/06 00:00:33;;;;;;;7.80;3.40;;;20.70;95.70;;;;;;4940187;28;20054;-81
2022/09/06 00:02:59;;;;;;;8.15;2.45;;;20.70;95.80;;;;;;4948294;29;20050;-81
2022/09/06 00:05:26;;;;;;;9.00;3.00;;;20.60;96.30;;;;;;4961573;28;20051;-81
2022/09/06 00:07:51;;;;;;;6.20;2.75;;;20.50;96.10;;;;;;4964334;28;20050;-83
2022/09/06 00:10:17;;;;;;;5.85;2.92;;;20.50;96.10;;;;;;4963188;28;20047;-80
2022/09/06 00:12:43;;;;;;;6.97;2.30;;;20.40;96.20;;;;;;4974220;28;20039;-81
2022/09/06 00:15:09;;;;;;;5.40;2.45;;;20.40;96.20;;;;;;4961977;28;20101;-81
2022/09/06 00:17:35;;;;;;;6.22;2.88;;;20.40;96.30;;;;;;4962917;28;20058;-81
2022/09/06 00:20:02;;;;;;;4.95;2.60;;;20.40;96.40;;;;;;4961130;28;20039;-81
2022/09/06 00:22:28;;;;;;;5.75;2.80;;;20.30;96.60;;;;;;4976073;28;20087;-81
2022/09/06 00:24:53;;;;;;;5.13;2.70;;;20.30;96.90;;;;;;4960208;28;20063;-81
2022/09/06 00:27:19;;;;;;;5.53;2.38;;;20.20;97.20;;;;;;4977184;28;20075;-81
2022/09/06 00:29:44;;;;;;;7.72;2.90;;;20.20;97.40;;;;;;4971273;28;20070;-82
2022/09/06 00:32:10;;;;;;;6.28;2.60;;;20.10;97.50;;;;;;4974546;28;20172;-80
2022/09/06 00:34:35;;;;;;;4.47;2.80;;;19.90;97.50;;;;;;4977876;28;20043;-81
2022/09/06 00:37:01;;;;;;;4.85;2.40;;;19.90;97.60;;;;;;4976479;28;20047;-81
2022/09/06 00:39:26;;;;;;;7.20;2.65;;;19.90;97.80;;;;;;4976846;28;20066;-82
2022/09/06 00:41:52;;;;;;;3.70;1.90;;;19.90;98.10;;;;;;4976408;28;20063;-82
2022/09/06 00:44:18;;;;;;;5.40;2.15;;;19.80;98.20;;;;;;4942368;28;20514;-80
2022/09/06 00:46:45;;;;;;;6.00;2.70;;;19.70;98.40;;;;;;4961271;28;20043;-81
2022/09/06 00:49:23;;;;;;;5.40;2.90;;;19.70;99.00;;;;;;4976020;28;20042;-82
2022/09/06 00:51:54;;;;;;;3.67;3.08;;;19.60;99.30;;;;;;4961231;28;20046;-81
2022/09/06 00:54:20;;;;;;;5.45;2.85;;;19.60;99.50;;;;;;4960461;28;20035;-81
2022/09/06 00:56:46;;;;;;;6.50;3.00;;;19.40;99.60;;;;;;4961695;28;20090;-83
2022/09/06 00:59:12;;;;;;;6.32;2.65;;;19.20;99.50;;;;;;4973284;28;20504;-82
2022/09/06 01:01:38;;;;;;;5.18;2.63;;;19.20;99.70;;;;;;4943909;29;20039;-80
2022/09/06 01:04:04;;;;;;;7.38;2.80;;;19.10;99.90;;;;;;4972250;28;20132;-81
2022/09/06 01:07:04;;;;;;;9.77;3.45;;;19.00;99.90;;;;;;4962830;28;20090;-83
2022/09/06 01:09:52;;;;;;;4.97;2.85;;;19.00;99.90;;;;;;4977365;28;20119;-83
2022/09/06 01:12:28;;;;;;;4.65;2.90;;;18.90;99.90;;;;;;4961813;28;20047;-80
2022/09/06 01:15:13;;;;;;;3.72;3.25;;;18.80;99.90;;;;;;4959736;28;20035;-81
2022/09/06 01:17:39;;;;;;;;;;;18.60;99.90;;;;;;4961961;28;20046;-81
2022/09/06 01:20:13;;;;;;;7.88;2.85;;;18.60;99.90;;;;;;4962309;28;19922;-82
2022/09/06 01:23:14;;;;;;;5.05;3.03;;;18.60;99.90;;;;;;4977290;28;20047;-81
2022/09/06 01:26:39;;;;;;;4.95;3.00;;;18.60;99.90;;;;;;4977270;28;20053;-81
2022/09/06 01:29:14;;;;;;;5.65;2.90;;;18.60;99.90;;;;;;4932577;28;20187;-82
2022/09/06 01:31:53;;;;;;;4.07;3.35;;;18.50;99.90;;;;;;4974155;28;20129;-80
2022/09/06 01:34:44;;;;;;;4.80;2.60;;;18.50;99.90;;;;;;4956671;28;20175;-81
2022/09/06 01:37:13;;;;;;;3.55;2.88;;;18.60;99.90;;;;;;4961776;28;20039;-82
2022/09/06 01:39:40;;;;;;;4.45;2.60;;;18.70;99.90;;;;;;4972348;28;20046;-80
2022/09/06 01:42:22;;;;;;;5.47;3.00;;;18.70;99.90;;;;;;4960889;28;20043;-81
2022/09/06 01:45:02;;;;;;;3.28;2.58;;;18.80;99.90;;;;;;4973335;28;20574;-82
2022/09/06 01:47:58;;;;;;;4.65;2.97;;;18.70;99.90;;;;;;4941342;29;20043;-81
2022/09/06 01:50:39;;;;;;;6.25;2.70;;;18.70;99.90;;;;;;4959234;28;20043;-82
2022/09/06 01:53:38;;;;;;;2.95;2.70;;;18.70;99.90;;;;;;4959899;28;20431;-81
2022/09/06 01:56:21;;;;;;;4.88;3.47;;;18.80;99.90;;;;;;4961830;28;20058;-81
2022/09/06 01:59:18;;;;;;;4.63;2.65;;;18.80;99.90;;;;;;4974752;28;20094;-81
2022/09/06 02:02:02;;;;;;;9.00;3.15;;;18.80;99.90;;;;;;4948078;29;20055;-81
2022/09/06 02:04:35;;;;;;;4.50;3.00;;;18.80;99.90;;;;;;4974194;28;20058;-81
2022/09/06 02:07:07;;;;;;;5.55;3.15;;;18.80;99.90;;;;;;4975659;28;20054;-81
2022/09/06 02:09:39;;;;;;;4.45;3.88;;;18.80;99.90;;;;;;4976124;28;20047;-81
2022/09/06 02:12:07;;;;;;;5.07;3.00;;;18.70;99.90;;;;;;4962551;28;20075;-82
2022/09/06 02:14:39;;;;;;;5.10;2.97;;;18.60;99.90;;;;;;4944149;28;20436;-83
2022/09/06 02:17:07;;;;;;;8.00;3.05;;;18.60;99.90;;;;;;4976521;28;20051;-82
2022/09/06 02:19:39;;;;;;;3.80;2.40;;;18.50;99.90;;;;;;4960886;28;20050;-80
2022/09/06 02:22:08;;;;;;;3.67;3.00;;;18.50;99.90;;;;;;4962122;28;20047;-82
2022/09/06 02:24:36;;;;;;;6.25;3.28;;;18.50;99.90;;;;;;4961736;28;20047;-81
2022/09/06 02:27:02;;;;;;;4.80;2.92;;;18.50;99.90;;;;;;4960322;28;20043;-81
2022/09/06 02:29:28;;;;;;;6.95;3.22;;;18.50;99.90;;;;;;4957983;29;20043;-82
2022/09/06 02:32:04;;;;;;;4.15;2.50;;;18.40;99.90;;;;;;4975895;28;20057;-80
2022/09/06 02:34:29;;;;;;;4.00;2.95;;;18.40;99.90;;;;;;4977943;28;20063;-82
2022/09/06 02:36:56;;;;;;;8.18;2.78;;;18.30;99.90;;;;;;4964887;28;20063;-81
2022/09/06 02:39:22;;;;;;;3.90;3.00;;;18.40;99.90;;;;;;4980468;28;20079;-83
2022/09/06 02:41:48;;;;;;;5.15;2.90;;;18.40;99.90;;;;;;4963780;28;20683;-81
2022/09/06 02:44:14;;;;;;;3.83;2.75;;;18.40;99.90;;;;;;4977771;28;20047;-81
2022/09/06 02:46:40;;;;;;;6.88;4.10;;;18.40;99.90;;;;;;4980186;28;20050;-81
2022/09/06 02:49:05;;;;;;;4.55;2.70;;;18.40;99.90;;;;;;4979603;28;20046;-82
2022/09/06 02:51:37;;;;;;;10.55;2.88;;;18.50;99.90;;;;;;4979661;28;20053;-81
2022/09/06 02:54:03;;;;;;;4.95;2.95;;;18.50;99.90;;;;;;4978905;28;20048;-81
2022/09/06 02:56:28;;;;;;;3.55;3.15;;;18.50;99.90;;;;;;4943455;29;20050;-81
2022/09/06 02:58:54;;;;;;;8.85;3.25;;;18.50;99.90;;;;;;4961929;28;20184;-82
2022/09/06 03:01:20;;;;;;;7.20;2.88;;;18.60;99.90;;;;;;4979715;28;20058;-82
2022/09/06 03:03:46;;;;;;;3.45;2.70;;;18.60;99.90;;;;;;4976122;28;20062;-83
2022/09/06 03:06:11;;;;;;;4.93;2.95;;;18.60;99.90;;;;;;4960816;28;20106;-81
2022/09/06 03:08:37;;;;;;;5.32;3.30;;;18.60;99.90;;;;;;4978124;28;20510;-81
2022/09/06 03:11:03;;;;;;;4.35;2.85;;;18.70;99.90;;;;;;4946245;28;20047;-83
2022/09/06 03:13:28;;;;;;;3.67;2.55;;;18.70;99.90;;;;;;4939869;28;21115;-81
2022/09/06 03:15:56;;;;;;;4.60;2.47;;;18.70;99.90;;;;;;4977135;28;20081;-82
2022/09/06 03:18:23;;;;;;;4.60;3.05;;;18.70;99.90;;;;;;4944989;28;20043;-81
2022/09/06 03:20:49;;;;;;;13.35;3.50;;;18.80;99.90;;;;;;4978592;28;20054;-80
2022/09/06 03:23:16;;;;;;;4.60;3.33;;;18.80;99.90;;;;;;4975868;28;22177;-81
2022/09/06 03:25:42;;;;;;;3.15;2.85;;;18.80;99.90;;;;;;4962094;28;20050;-82
2022/09/06 03:28:07;;;;;;;5.00;3.28;;;18.80;99.90;;;;;;4947293;28;20047;-81
2022/09/06 03:30:33;;;;;;;3.63;3.13;;;18.80;99.90;;;;;;4976929;28;20536;-82
2022/09/06 03:32:58;;;;;;;6.25;3.00;;;18.80;99.90;;;;;;4977286;28;20566;-80
2022/09/06 03:35:24;;;;;;;5.10;3.10;;;18.80;99.90;;;;;;4960506;28;20042;-81
2022/09/06 03:37:49;;;;;;;6.45;3.00;;;18.80;99.90;;;;;;4974809;28;20039;-81
2022/09/06 03:40:15;;;;;;;5.65;2.85;;;18.90;99.90;;;;;;4979223;28;20047;-82
2022/09/06 03:42:41;;;;;;;5.43;3.13;;;18.90;99.90;;;;;;4959987;28;21111;-81
2022/09/06 03:45:07;;;;;;;6.50;3.13;;;18.90;99.90;;;;;;4961225;28;20046;-82
2022/09/06 03:47:32;;;;;;;4.85;3.33;;;18.90;99.90;;;;;;4961394;28;20427;-81
2022/09/06 03:49:58;;;;;;;8.63;3.58;;;18.90;99.90;;;;;;4977834;28;20052;-81
2022/09/06 03:52:23;;;;;;;7.53;4.10;;;19.00;99.90;;;;;;4961678;28;20078;-82
2022/09/06 03:54:49;;;;;;;4.70;3.13;;;19.00;99.90;;;;;;4957594;28;20086;-81
2022/09/06 03:57:14;;;;;;;5.47;3.13;;;19.00;99.90;;;;;;4963387;28;20051;-81
2022/09/06 03:59:40;;;;;;;5.82;3.45;;;19.00;99.90;;;;;;4952673;28;20141;-81
2022/09/06 04:02:06;;;;;;;8.77;3.40;;;19.00;99.90;;;;;;4959619;28;20035;-83
2022/09/06 04:04:32;;;;;;;6.40;3.28;;;19.00;99.90;;;;;;4942068;29;20066;-81
2022/09/06 04:06:57;;;;;;;8.85;3.72;;;19.00;99.90;;;;;;4962496;28;20046;-82
2022/09/06 04:09:23;;;;;;;6.47;3.45;;;19.00;99.90;;;;;;4924748;29;20140;-80
2022/09/06 04:11:48;;;;;;;6.32;3.45;;;19.00;99.90;;;;;;4956848;28;20082;-81
2022/09/06 04:14:14;;;;;;;8.70;3.30;;;19.00;99.90;;;;;;4960744;28;20050;-82
2022/09/06 04:16:39;;;;;;;8.40;4.00;;;18.90;99.90;;;;;;4960118;28;20047;-80
2022/09/06 04:19:05;;;;;;;6.15;3.53;;;19.00;99.90;;;;;;4973081;28;20122;-80
2022/09/06 04:21:31;;;;;;;6.32;3.67;;;18.90;99.90;;;;;;4956977;28;20070;-83
2022/09/06 04:23:56;;;;;;;4.30;3.58;;;18.90;99.90;;;;;;4961305;29;20059;-83
2022/09/06 04:26:22;;;;;;;6.15;4.03;;;18.80;99.90;;;;;;4978387;28;20046;-83
2022/09/06 04:28:48;;;;;;;6.97;4.13;;;18.80;99.90;;;;;;4975317;28;20070;-83
2022/09/06 04:31:13;;;;;;;5.13;3.47;;;18.70;99.90;;;;;;4957825;28;20054;-83
2022/09/06 04:33:40;;;;;;;9.38;4.60;;;18.70;99.90;;;;;;4976806;28;20043;-83
2022/09/06 04:36:10;;;;;;;8.48;4.45;;;18.70;99.90;;;;;;4942036;28;20043;-85
2022/09/06 04:38:42;;;;;;;5.65;4.20;;;18.60;99.90;;;;;;4941679;29;20534;-84
2022/09/06 04:41:12;;;;;;;5.72;4.97;;;18.50;99.90;;;;;;4940215;29;20078;-83
2022/09/06 04:43:37;;;;;;;8.77;4.20;;;18.40;99.90;;;;;;4979166;28;20087;-84
2022/09/06 04:46:18;;;;;;;6.20;3.97;;;18.40;99.90;;;;;;4979860;28;20073;-83
2022/09/06 04:48:44;;;;;;;4.68;4.25;;;18.40;99.90;;;;;;4978008;28;20054;-83
2022/09/06 04:51:09;;;;;;;5.90;4.70;;;18.50;99.90;;;;;;4957007;28;20512;-81
2022/09/06 04:53:35;;;;;;;6.50;4.45;;;18.40;99.90;;;;;;4963972;29;20534;-81
2022/09/06 04:56:01;;;;;;;7.32;5.00;;;18.40;99.90;;;;;;4980275;28;20062;-80
2022/09/06 04:58:26;;;;;;;6.60;4.40;;;18.30;99.90;;;;;;4976672;28;20042;-82
2022/09/06 05:00:52;;;;;;;7.65;4.30;;;18.30;99.90;;;;;;4947592;29;20058;-84
2022/09/06 05:03:17;;;;;;;5.72;4.90;;;18.30;99.90;;;;;;4942642;29;20043;-81
2022/09/06 05:05:43;;;;;;;11.00;5.63;;;18.20;99.90;;;;;;4944349;29;20043;-81
2022/09/06 05:08:08;;;;;;;4.90;4.50;;;18.20;99.90;;;;;;4976745;28;20051;-80
2022/09/06 05:10:34;;;;;;;5.57;5.07;;;18.10;99.90;;;;;;4957453;28;20209;-83
2022/09/06 05:13:00;;;;;;;6.13;5.63;;;18.10;99.90;;;;;;4958584;29;20032;-80
2022/09/06 05:16:27;;;;;;;11.13;5.88;;;18.10;99.90;;;;;;4938735;29;20049;-81
2022/09/06 05:18:53;;;;;;;6.32;5.05;;;18.10;99.90;;;;;;4945629;29;20181;-83
2022/09/06 05:21:19;;;;;;;6.65;5.28;;;18.00;99.90;;;;;;4974319;28;20149;-82
2022/09/06 05:23:44;;;;;;;5.75;5.32;;;17.90;99.90;;;;;;4938339;28;20074;-83
2022/09/06 05:26:10;;;;;;;6.70;6.00;;;17.90;99.90;;;;;;4971470;28;20602;-81
2022/09/06 05:28:35;;;;;;;7.25;5.65;;;17.80;99.90;;;;;;4972277;28;20135;-81
2022/09/06 05:31:22;;;;;;;9.85;6.53;;;17.70;99.90;;;;;;4967656;28;20043;-81
2022/09/06 05:33:47;;;;;;;7.40;5.57;;;17.60;99.90;;;;;;4964997;28;20122;-80
2022/09/06 05:36:13;;;;;;;8.85;6.35;;;17.60;99.90;;;;;;4967657;28;20190;-81
2022/09/06 05:38:38;;;;;;;8.15;5.65;;;17.60;99.90;;;;;;4969660;28;20051;-82
2022/09/06 05:41:04;;;;;;;6.45;5.82;;;17.50;99.90;;;;;;4974138;28;20082;-82
2022/09/06 05:43:29;;;;;;;7.35;6.10;;;17.50;99.90;;;;;;4948663;29;20043;-82
2022/09/06 05:45:55;;;;;;;6.80;6.03;;;17.50;99.90;;;;;;4955171;29;20043;-82
2022/09/06 05:48:20;;;;;;;6.97;6.28;;;17.50;99.90;;;;;;4973190;28;20058;-82
2022/09/06 05:50:46;;;;;;;7.25;6.18;;;17.50;99.90;;;;;;4974326;28;20111;-82
2022/09/06 05:53:11;;;;;;;6.13;5.63;;;17.50;99.90;;;;;;4956178;29;20082;-83
2022/09/06 05:55:37;;;;;;;7.25;6.20;;;17.40;99.90;;;;;;4964551;28;20130;-80
2022/09/06 05:58:03;;;;;;;7.05;6.35;;;17.50;99.90;;;;;;4948488;28;20075;-80
2022/09/06 06:00:28;;;;;;;6.88;6.28;;;17.50;99.90;;;;;;4935586;29;20079;-81
2022/09/06 06:02:54;;;;;;;6.35;5.68;;;17.60;99.90;;;;;;4966003;28;20248;-81
2022/09/06 06:06:23;;;;;;;9.65;5.90;;;17.50;99.90;;;;;;4957297;28;20472;-82
2022/09/06 06:08:48;;;;;;;8.27;6.32;;;17.60;99.90;;;;;;4942751;28;20070;-81
2022/09/06 06:11:18;;;;;;;9.38;6.10;;;17.60;99.90;;;;;;4958391;28;20055;-82
2022/09/06 06:13:51;;;;;;;8.43;7.15;;;17.70;99.90;;;;;;4947580;29;20179;-81
2022/09/06 06:16:31;;;;;;;9.63;6.32;;;17.80;99.90;;;;;;4974577;28;20074;-82
2022/09/06 06:19:10;;;;;;;7.03;6.32;;;17.80;99.90;;;;;;4955833;29;20043;-82
2022/09/06 06:21:37;;;;;;;10.68;6.68;;;17.90;99.90;;;;;;4941304;29;20134;-82
2022/09/06 06:24:08;;;;;;;9.45;6.38;;;17.90;99.90;;;;;;4954663;28;20061;-82
2022/09/06 06:26:35;;;;;;;9.73;6.95;;;18.00;99.90;;;;;;4960800;29;20169;-82
2022/09/06 06:29:10;;;;;;;12.45;6.55;;;18.00;99.90;;;;;;4940507;29;20050;-82
2022/09/06 06:31:37;;;;;;;7.10;6.05;;;18.00;99.90;;;;;;4975478;28;20047;-82
2022/09/06 06:34:09;;;;;;;9.48;7.15;;;18.00;99.90;;;;;;4957332;29;20047;-82
2022/09/06 06:37:20;;;;;;;7.63;6.40;;;18.10;99.90;;;;;;4942090;29;20043;-82
2022/09/06 06:44:42;;;;;;;7.95;7.15;;;18.00;99.90;;;;;;4920429;29;20064;-82
2022/09/06 06:47:51;;;;;;;11.70;6.65;;;18.00;99.90;;;;;;4928525;29;20055;-81
2022/09/06 06:51:00;;;;;;;8.80;6.63;;;18.10;99.90;;;;;;4921054;29;20042;-82
2022/09/06 06:53:34;;;;;;;9.77;7.78;;;18.00;99.90;;;;;;4919523;29;20067;-82
2022/09/06 06:56:11;;;;;;;7.95;7.18;;;18.10;99.90;;;;;;4904180;29;20055;-82
2022/09/06 06:58:38;;;;;;;9.23;7.25;;;18.10;99.90;;;;;;4952061;28;20073;-82
2022/09/06 07:01:04;;;;;;;8.02;7.20;;;18.10;99.90;;;;;;4940296;28;20162;-82
2022/09/06 07:03:30;;;;;;;10.30;7.03;;;18.30;99.90;;;;;;4975390;28;20419;-82
2022/09/06 07:06:21;;;;;;;7.15;6.40;;;18.10;99.90;;;;;;4957749;28;20137;-82
2022/09/06 07:08:46;;;;;;;8.23;7.38;;;18.10;99.90;;;;;;4992987;28;20439;-81
2022/09/06 07:11:18;;;;;;;12.57;6.93;;;18.20;99.90;;;;;;4923989;29;20146;-82
2022/09/06 07:13:45;;;;;;;9.05;7.93;;;18.20;99.90;;;;;;4938722;28;20107;-82
2022/09/06 07:16:27;;;;;;;8.07;7.25;;;18.40;99.90;;;;;;4995718;28;20070;-81
2022/09/06 07:19:19;;;;;;;8.55;7.80;;;18.50;99.90;;;;;;4947283;29;20058;-81
2022/09/06 07:22:09;;;;;;;8.52;7.72;;;18.70;99.90;;;;;;4939691;29;20036;-82
2022/09/06 07:25:33;;;;;;;8.52;7.88;;;18.80;99.90;;;;;;4962483;28;20436;-82
2022/09/06 07:28:02;;;;;;;11.18;8.13;;;19.10;99.90;;;;;;4978209;28;20043;-82
2022/09/06 07:30:46;;;;;;;8.82;7.80;;;19.40;99.90;;;;;;4960616;28;20122;-82
2022/09/06 07:33:37;;;;;;;8.07;6.70;;;19.70;99.90;;;;;;4974327;28;20423;-82
2022/09/06 07:36:26;;;;;;;7.63;6.85;;;20.00;99.90;;;;;;4968507;28;20047;-81
2022/09/06 07:39:08;;;;;;;7.40;6.63;;;20.20;99.90;;;;;;4907152;29;20059;-82
2022/09/06 07:42:09;;;;;;;8.05;6.80;;;21.00;99.90;;;;;;4818780;29;20062;-81
2022/09/06 07:48:15;;;;;;;7.30;6.60;;;20.60;99.90;;;;;;4956504;29;20046;-82
2022/09/06 07:50:54;;;;;;;6.78;6.18;;;20.90;99.90;;;;;;4973140;28;20279;-82
2022/09/06 07:53:22;;;;;;;8.45;7.10;;;20.80;99.90;;;;;;4958802;28;20118;-82
2022/09/06 07:55:50;;;;;;;8.57;6.57;;;20.90;99.90;;;;;;4958345;28;20046;-82
2022/09/06 07:58:41;;;;;;;9.68;6.60;;;21.10;99.90;;;;;;4957101;28;20713;-82
2022/09/06 08:01:33;;;;;;;8.32;7.03;;;21.40;99.90;;;;;;4959632;28;20050;-82
2022/09/06 08:04:05;;;;;;;7.97;6.53;;;21.50;99.90;;;;;;4944572;28;20093;-81
2022/09/06 08:06:33;;;;;;;8.75;6.68;;;21.90;99.90;;;;;;4946392;29;20047;-81
2022/09/06 08:08:59;;;;;;;7.13;6.53;;;22.00;99.90;;;;;;4945766;29;20061;-82
2022/09/06 08:11:29;;;;;;;11.73;7.25;;;22.30;99.90;;;;;;4979288;28;20039;-81
2022/09/06 08:13:57;;;;;;;7.00;6.22;;;22.60;99.90;;;;;;4979396;28;20090;-82
2022/09/06 08:16:24;;;;;;;7.95;7.15;;;23.30;99.90;;;;;;4979763;28;20046;-81
2022/09/06 08:18:57;;;;;;;10.52;6.68;;;23.20;99.90;;;;;;4979918;28;20071;-81
2022/09/06 08:21:25;;;;;;;9.10;6.35;;;23.70;99.90;;;;;;4957467;28;20054;-81
2022/09/06 08:24:26;;;;;;;8.45;6.43;;;24.30;99.90;;;;;;4959691;29;20043;-83
2022/09/06 08:27:07;;;;;;;7.00;6.25;;;24.00;99.90;;;;;;4959455;28;20036;-82
2022/09/06 08:29:34;;;;;;;11.23;5.93;;;23.90;99.90;;;;;;4962575;28;20058;-81
2022/09/06 08:32:22;;;;;;;7.35;6.32;;;23.80;99.90;;;;;;4976935;28;20035;-81
2022/09/06 08:35:19;;;;;;;6.72;5.93;;;23.70;99.90;;;;;;4958555;28;20159;-82
2022/09/06 08:39:01;;;;;;;8.60;6.38;;;23.60;99.90;;;;;;4961626;28;20062;-81
2022/09/06 08:42:07;;;;;;;7.25;5.95;;;23.50;99.90;;;;;;4941110;28;20080;-82
2022/09/06 08:45:23;;;;;;;9.48;5.13;;;23.30;99.90;;;;;;4925959;28;20067;-81
2022/09/06 08:48:09;;;;;;;6.85;6.25;;;23.30;99.90;;;;;;4958431;28;20547;-82
2022/09/06 08:50:37;;;;;;;7.60;6.78;;;23.10;99.90;;;;;;4970711;28;20039;-81
2022/09/06 08:53:25;;;;;;;13.60;6.95;;;23.10;99.90;;;;;;4942029;29;20043;-81
2022/09/06 08:55:54;;;;;;;8.93;6.50;;;23.20;99.90;;;;;;4972925;28;20083;-82
2022/09/06 08:58:44;;;;;;;8.68;5.47;;;23.20;99.90;;;;;;4971107;28;20043;-82
2022/09/06 09:01:24;;;;;;;6.68;5.95;;;23.60;99.90;;;;;;4975990;28;20066;-81
2022/09/06 09:03:51;;;;;;;7.10;6.43;;;24.10;99.90;;;;;;4970879;28;20095;-81
2022/09/06 09:06:16;;;;;;;8.88;6.07;;;24.10;99.90;;;;;;4971650;28;20047;-81
2022/09/06 09:08:46;;;;;;;7.60;5.90;;;24.10;99.90;;;;;;4973469;28;20054;-81
2022/09/06 09:11:20;;;;;;;6.65;6.00;;;24.40;99.90;;;;;;4972730;28;20085;-81
2022/09/06 09:13:46;;;;;;;5.70;5.25;;;24.70;99.90;;;;;;4972800;28;20145;-81
2022/09/06 09:16:13;;;;;;;6.72;4.78;;;24.90;99.90;;;;;;4970490;28;20137;-81
2022/09/06 09:18:44;;;;;;;5.72;5.07;;;25.30;99.90;;;;;;4967145;28;20039;-81
2022/09/06 09:21:10;;;;;;;8.75;6.60;;;25.20;99.90;;;;;;4951550;28;20043;-81
2022/09/06 09:23:36;;;;;;;7.57;4.95;;;25.40;99.90;;;;;;4955200;28;20507;-81
2022/09/06 09:26:28;;;;;;;8.60;5.50;;;25.40;99.90;;;;;;4956165;28;20043;-81
2022/09/06 09:29:15;;;;;;;8.30;4.80;;;25.40;99.90;;;;;;4958228;28;20059;-81
2022/09/06 09:32:27;;;;;;;7.43;5.20;;;25.50;99.90;;;;;;4955118;28;20055;-81
2022/09/06 09:35:23;;;;;;;6.80;4.70;;;25.50;99.90;;;;;;4955530;28;20050;-81
2022/09/06 09:38:31;;;;;;;4.38;3.38;;;25.60;99.90;;;;;;4949617;28;20062;-81
2022/09/06 09:41:04;;;;;;;3.75;2.67;;;26.00;99.90;;;;;;4942239;28;20047;-81
2022/09/06 09:43:41;;;;;;;4.45;2.95;;;26.20;99.90;;;;;;4954882;28;20047;-81
2022/09/06 09:46:25;;;;;;;4.43;2.78;;;26.40;99.90;;;;;;4989228;28;20484;-81
2022/09/06 09:49:39;;;;;;;12.98;3.50;;;26.60;99.90;;;;;;4973663;28;20055;-81
2022/09/06 09:52:17;;;;;;;4.13;3.45;;;26.60;99.30;;;;;;4927233;29;20061;-81
2022/09/06 09:55:07;;;;;;;4.38;2.40;;;26.80;99.30;;;;;;4943852;29;20101;-80
2022/09/06 09:57:45;;;;;;;5.63;2.92;;;27.00;98.40;;;;;;4907338;29;20055;-81
2022/09/06 10:00:35;;;;;;;8.80;2.97;;;27.00;97.70;;;;;;4956325;28;20066;-81
2022/09/06 10:03:18;;;;;;;6.03;2.75;;;27.00;98.30;;;;;;4971909;28;20058;-81
2022/09/06 10:05:55;;;;;;;3.00;2.63;;;27.20;97.60;;;;;;4954039;28;20050;-81
2022/09/06 10:08:23;;;;;;;6.22;2.95;;;27.20;96.30;;;;;;4950537;28;20043;-81
2022/09/06 10:10:49;;;;;;;6.80;2.70;;;27.30;97.00;;;;;;4970048;28;20062;-81
2022/09/06 10:13:29;;;;;;;3.20;2.65;;;27.40;96.80;;;;;;4972761;28;20319;-81
2022/09/06 10:15:55;;;;;;;6.00;2.90;;;27.60;96.00;;;;;;4953937;28;20611;-81
2022/09/06 10:18:43;;;;;;;6.07;3.10;;;27.50;96.30;;;;;;4969519;28;20054;-81
2022/09/06 10:21:21;;;;;;;5.10;2.80;;;27.60;95.50;;;;;;4955969;28;20062;-81
2022/09/06 10:24:20;;;;;;;6.32;3.10;;;27.50;96.10;;;;;;4968496;28;20134;-81
2022/09/06 10:26:54;;;;;;;8.23;3.70;;;27.30;95.70;;;;;;4972335;28;20039;-81
2022/09/06 10:29:37;;;;;;;6.63;3.75;;;27.30;96.30;;;;;;4954910;28;20514;-81
2022/09/06 10:32:30;;;;;;;6.78;3.40;;;27.20;96.10;;;;;;4971793;28;20047;-81
2022/09/06 10:35:27;;;;;;;9.88;3.80;;;27.50;96.10;;;;;;4954142;28;20113;-81
2022/09/06 10:38:15;;;;;;;6.03;3.05;;;27.40;95.80;;;;;;4966457;28;20214;-81
2022/09/06 10:40:51;;;;;;;5.70;3.83;;;27.30;95.90;;;;;;4966894;28;20866;-81
2022/09/06 10:43:19;;;;;;;5.63;3.97;;;27.20;95.90;;;;;;4952321;28;20424;-81
2022/09/06 10:45:45;;;;;;;5.75;3.15;;;27.20;96.00;;;;;;4969302;28;20093;-81
2022/09/06 10:52:26;;;;;;;8.73;4.30;;;27.20;96.00;;;;;;4945211;28;20172;-82
2022/09/06 10:55:33;;;;;;;26.17;4.95;;;27.10;96.10;;;;;;4953616;28;20106;-80
2022/09/06 10:58:24;;;;;;;30.38;6.82;;;27.30;96.70;;;;;;4936605;28;20157;-82
2022/09/06 11:01:00;;;;;;;44.10;6.65;;;27.10;95.90;;;;;;4938025;28;20107;-80
2022/09/06 11:03:39;;;;;;;35.72;7.30;;;27.20;96.10;;;;;;4955581;28;20055;-80
2022/09/06 11:06:10;;;;;;;19.13;5.25;;;27.10;96.10;;;;;;4958619;28;20043;-82
2022/09/06 11:08:52;;;;;;;18.00;5.78;;;27.00;96.30;;;;;;4971768;28;20050;-81
2022/09/06 11:12:00;;;;;;;18.70;5.90;;;27.10;96.30;;;;;;4978329;28;20062;-81
2022/09/06 11:14:27;;;;;;;19.25;6.53;;;27.40;96.80;;;;;;4925579;28;20118;-82
2022/09/06 11:17:06;;;;;;;7.95;5.70;;;27.40;96.70;;;;;;4964089;28;20514;-80
2022/09/06 11:19:49;;;;;;;11.20;5.47;;;27.50;96.70;;;;;;4958227;28;20043;-81
2022/09/06 11:22:53;;;;;;;19.10;5.63;;;27.50;96.20;;;;;;4938805;28;20070;-81
2022/09/06 11:25:48;;;;;;;33.30;5.90;;;27.60;96.40;;;;;;4902276;29;20071;-81
2022/09/06 11:28:20;;;;;;;35.23;5.37;;;27.60;96.50;;;;;;4899011;29;20128;-82
2022/09/06 11:30:49;;;;;;;22.33;5.43;;;27.80;96.40;;;;;;4925774;28;20122;-81
2022/09/06 11:33:28;;;;;;;5.50;5.00;;;27.90;96.10;;;;;;4975008;28;20047;-80
2022/09/06 11:36:18;;;;;;;7.15;4.18;;;28.00;95.50;;;;;;4960684;28;20051;-80
2022/09/06 11:38:55;;;;;;;9.60;4.90;;;28.20;95.50;;;;;;4955405;28;20076;-80
2022/09/06 11:41:31;;;;;;;4.65;4.25;;;28.00;95.10;;;;;;4973976;28;20081;-80
2022/09/06 11:43:57;;;;;;;5.65;5.10;;;27.90;95.00;;;;;;4955396;28;20067;-81
2022/09/06 11:46:47;;;;;;;7.40;4.47;;;27.70;95.20;;;;;;4959964;28;20816;-82
2022/09/06 11:49:31;;;;;;;7.45;4.20;;;27.70;95.90;;;;;;4953871;28;20067;-80
2022/09/06 11:51:57;;;;;;;6.38;3.92;;;27.80;95.70;;;;;;4959248;28;20073;-82
2022/09/06 11:54:40;;;;;;;7.47;4.05;;;27.90;95.50;;;;;;4955975;28;20070;-80
2022/09/06 11:57:06;;;;;;;5.13;3.85;;;27.70;94.70;;;;;;4956604;28;20043;-80
2022/09/06 11:59:59;;;;;;;5.45;3.58;;;27.70;95.40;;;;;;4970734;28;20184;-80
2022/09/06 12:02:39;;;;;;;9.18;3.88;;;27.90;95.30;;;;;;4951337;28;20051;-82
2022/09/06 12:05:06;;;;;;;4.65;3.40;;;27.90;95.00;;;;;;4920059;28;20035;-82
2022/09/06 12:07:35;;;;;;;8.65;3.42;;;28.00;95.30;;;;;;4928540;28;20050;-83
2022/09/06 12:10:22;;;;;;;6.95;3.35;;;27.90;94.20;;;;;;4940324;28;20556;-80
2022/09/06 12:12:51;;;;;;;3.60;3.30;;;28.00;94.30;;;;;;4906522;28;20055;-83
2022/09/06 12:15:44;;;;;;;5.88;3.22;;;27.80;94.30;;;;;;4955336;28;20042;-80
2022/09/06 12:18:42;;;;;;;5.15;3.40;;;27.80;94.20;;;;;;4968433;28;20591;-82
2022/09/06 12:21:42;;;;;;;2.80;2.60;;;27.90;94.30;;;;;;4952116;28;20046;-82
2022/09/06 12:24:29;;;;;;;8.82;3.83;;;28.10;94.00;;;;;;4975992;28;20063;-81
2022/09/06 12:27:14;;;;;;;6.40;3.22;;;28.20;94.00;;;;;;4967588;28;20047;-81
2022/09/06 12:29:49;;;;;;;7.73;3.43;;;28.10;94.00;;;;;;4975612;28;20424;-80
2022/09/06 12:32:20;;;;;;;;;;;28.00;93.80;;;;;;4977990;28;20047;-81
2022/09/06 12:34:45;;;;;;;4.45;2.65;;;27.90;94.60;;;;;;4941190;28;20014;-81
2022/09/06 12:37:11;;;;;;;7.35;3.25;;;27.80;94.10;;;;;;4957924;28;20083;-81
2022/09/06 12:39:37;;;;;;;5.75;3.17;;;27.70;94.00;;;;;;4950997;28;20124;-81
2022/09/06 12:42:09;;;;;;;5.00;2.97;;;27.80;94.50;;;;;;4941677;28;20050;-81
2022/09/06 12:44:47;;;;;;;3.78;2.20;;;27.80;93.70;;;;;;4956215;28;20117;-81
2022/09/06 12:47:17;;;;;;;6.50;3.15;;;27.80;93.90;;;;;;4942207;28;20039;-80
2022/09/06 12:49:43;;;;;;;7.05;2.92;;;27.90;94.10;;;;;;4964869;28;20047;-80
2022/09/06 12:52:14;;;;;;;6.85;3.15;;;27.90;93.50;;;;;;4934649;28;20043;-81
2022/09/06 12:54:46;;;;;;;3.50;2.67;;;27.90;93.20;;;;;;4972127;28;20830;-83
2022/09/06 12:57:22;;;;;;;7.80;2.33;;;27.90;93.40;;;;;;4959520;28;20063;-81
2022/09/06 12:59:56;;;;;;;9.32;2.00;;;28.10;93.70;;;;;;4969361;28;20102;-80
2022/09/06 13:02:50;;;;;;;4.43;2.00;;;28.20;93.60;;;;;;4970502;28;20054;-81
2022/09/06 13:05:16;;;;;;;185.10;22.63;;;28.50;93.10;;;;;;4937522;28;20063;-81
2022/09/06 13:07:45;;;;;;;5.72;2.20;;;28.60;92.90;;;;;;4934680;28;20044;-81
2022/09/06 13:10:14;;;;;;;1.48;1.38;;;28.70;92.50;;;;;;4965819;28;20053;-82
2022/09/06 13:12:44;;;;;;;4.40;2.10;;;28.90;92.30;;;;;;4918003;28;20126;-83
2022/09/06 13:15:21;;;;;;;3.25;2.03;;;28.90;91.80;;;;;;4949126;28;20106;-82
2022/09/06 13:17:47;;;;;;;6.53;1.65;;;29.00;91.20;;;;;;4950726;28;20059;-82
2022/09/06 13:20:26;;;;;;;5.18;2.05;;;29.10;91.50;;;;;;4952819;28;20054;-81
2022/09/06 13:22:53;;;;;;;4.63;1.30;;;28.90;91.50;;;;;;4967308;28;20043;-82
2022/09/06 13:25:18;;;;;;;3.28;2.00;;;28.90;91.30;;;;;;4950878;28;20035;-81
2022/09/06 13:27:48;;;;;;;4.30;1.65;;;29.00;91.00;;;;;;4949092;28;20090;-82
2022/09/06 13:30:43;;;;;;;2.50;1.50;;;29.10;91.10;;;;;;4937711;28;20176;-83
2022/09/06 13:33:23;;;;;;;5.10;1.73;;;29.30;91.40;;;;;;4964775;28;20050;-81
2022/09/06 13:36:02;;;;;;;4.90;1.02;;;29.40;91.00;;;;;;4946705;28;20039;-81
2022/09/06 13:38:40;;;;;;;3.92;1.15;;;29.50;90.70;;;;;;4933222;28;20039;-81